sensor_id;sensor_type;location;lat;lon;timestamp;temperature;humidity
20858;DHT22;10589;53.636;10.012;2023-08-31T03:47:36;11.80;99.90
20858;DHT22;10589;53.636;10.012;2023-08-31T03:50:02;11.80;99.90
20858;DHT22;10589;53.636;10.012;2023-08-31T03:52:27;11.70;99.90
20858;DHT22;10589;53.636;10.012;2023-08-31T03:54:54;11.70;99.90
20858;DHT22;10589;53.636;10.012;2023-08-31T03:57:19;11.70;99.90
20858;DHT22;10589;53.636;10.012;2023-08-31T03:59:46;11.70;99.90
20858;DHT22;10589;53.636;10.012;2023-08-31T04:02:11;11.70;99.90
20858;DHT22;10589;53.636;10.012;2023-08-31T04:04:37;11.70;99.90
20858;DHT22;10589;53.636;10.012;2023-08-31T04:07:02;11.70;99.90
20858;DHT22;10589;53.636;10.012;2023-08-31T04:09:28;11.80;99.90
20858;DHT22;10589;53.636;10.012;2023-08-31T04:11:54;11.70;99.90
20858;DHT22;10589;53.636;10.012;2023-08-31T04:14:19;11.70;99.90
20858;DHT22;10589;53.636;10.012;2023-08-31T04:16:45;11.70;99.90
20858;DHT22;10589;53.636;10.012;2023-08-31T04:19:14;11.70;99.90
20858;DHT22;10589;53.636;10.012;2023-08-31T04:21:40;11.60;99.90
20858;DHT22;10589;53.636;10.012;2023-08-31T04:24:06;11.70;99.90
20858;DHT22;10589;53.636;10.012;2023-08-31T04:26:31;11.70;99.90
20858;DHT22;10589;53.636;10.012;2023-08-31T04:28:57;11.60;99.90
20858;DHT22;10589;53.636;10.012;2023-08-31T04:31:22;11.70;99.90
20858;DHT22;10589;53.636;10.012;2023-08-31T04:33:48;11.60;99.90
20858;DHT22;10589;53.636;10.012;2023-08-31T04:36:14;11.60;99.90
20858;DHT22;10589;53.636;10.012;2023-08-31T04:38:39;11.60;99.90
20858;DHT22;10589;53.636;10.012;2023-08-31T04:41:05;11.60;99.90
20858;DHT22;10589;53.636;10.012;2023-08-31T04:43:31;11.50;99.90
20858;DHT22;10589;53.636;10.012;2023-08-31T04:45:56;11.50;99.90
20858;DHT22;10589;53.636;10.012;2023-08-31T04:48:22;11.50;99.90
20858;DHT22;10589;53.636;10.012;2023-08-31T04:50:48;11.40;99.90
20858;DHT22;10589;53.636;10.012;2023-08-31T04:53:13;11.40;99.90
20858;DHT22;10589;53.636;10.012;2023-08-31T04:55:39;11.40;99.90
20858;DHT22;10589;53.636;10.012;2023-08-31T04:58:05;11.50;99.90
20858;DHT22;10589;53.636;10.012;2023-08-31T05:00:30;11.50;99.90
20858;DHT22;10589;53.636;10.012;2023-08-31T05:02:57;11.50;99.90
20858;DHT22;10589;53.636;10.012;2023-08-31T05:05:23;11.60;99.90
20858;DHT22;10589;53.636;10.012;2023-08-31T05:07:48;11.60;99.90
20858;DHT22;10589;53.636;10.012;2023-08-31T05:10:14;11.70;99.90
20858;DHT22;10589;53.636;10.012;2023-08-31T05:12:40;11.70;99.90
20858;DHT22;10589;53.636;10.012;2023-08-31T05:15:06;11.70;99.90
20858;DHT22;10589;53.636;10.012;2023-08-31T05:17:32;11.70;99.90
20858;DHT22;10589;53.636;10.012;2023-08-31T05:19:58;11.70;99.90
20858;DHT22;10589;53.636;10.012;2023-08-31T05:22:23;11.70;99.90
20858;DHT22;10589;53.636;10.012;2023-08-31T05:24:49;11.70;99.90
20858;DHT22;10589;53.636;10.012;2023-08-31T05:27:15;11.80;99.90
20858;DHT22;10589;53.636;10.012;2023-08-31T05:29:40;11.80;99.90
20858;DHT22;10589;53.636;10.012;2023-08-31T05:32:06;11.80;99.90
20858;DHT22;10589;53.636;10.012;2023-08-31T05:34:32;11.80;99.90
20858;DHT22;10589;53.636;10.012;2023-08-31T05:37:00;11.80;99.90
20858;DHT22;10589;53.636;10.012;2023-08-31T05:39:25;11.90;99.90
20858;DHT22;10589;53.636;10.012;2023-08-31T05:41:51;11.90;99.90
20858;DHT22;10589;53.636;10.012;2023-08-31T05:44:16;11.90;99.90
20858;DHT22;10589;53.636;10.012;2023-08-31T05:46:42;12.00;99.90
20858;DHT22;10589;53.636;10.012;2023-08-31T05:49:08;12.00;99.90
20858;DHT22;10589;53.636;10.012;2023-08-31T05:51:34;12.00;99.90
20858;DHT22;10589;53.636;10.012;2023-08-31T05:53:59;12.00;99.90
20858;DHT22;10589;53.636;10.012;2023-08-31T05:56:25;12.00;99.90
20858;DHT22;10589;53.636;10.012;2023-08-31T05:58:51;12.00;99.90
20858;DHT22;10589;53.636;10.012;2023-08-31T06:01:20;12.10;99.90
20858;DHT22;10589;53.636;10.012;2023-08-31T06:03:48;12.00;99.90
20858;DHT22;10589;53.636;10.012;2023-08-31T06:06:14;12.10;99.90
20858;DHT22;10589;53.636;10.012;2023-08-31T06:08:39;12.10;99.90
20858;DHT22;10589;53.636;10.012;2023-08-31T06:11:05;12.10;99.90
20858;DHT22;10589;53.636;10.012;2023-08-31T06:13:31;12.10;99.90
20858;DHT22;10589;53.636;10.012;2023-08-31T06:15:56;12.20;99.90
20858;DHT22;10589;53.636;10.012;2023-08-31T06:18:23;12.20;99.90
20858;DHT22;10589;53.636;10.012;2023-08-31T06:20:52;12.20;99.90
20858;DHT22;10589;53.636;10.012;2023-08-31T06:23:17;12.30;99.90
20858;DHT22;10589;53.636;10.012;2023-08-31T06:25:43;12.40;99.90
20858;DHT22;10589;53.636;10.012;2023-08-31T06:28:11;12.50;99.90
20858;DHT22;10589;53.636;10.012;2023-08-31T06:30:37;12.50;99.90
20858;DHT22;10589;53.636;10.012;2023-08-31T06:33:04;12.70;99.90
20858;DHT22;10589;53.636;10.012;2023-08-31T06:35:30;12.70;99.90
20858;DHT22;10589;53.636;10.012;2023-08-31T06:37:56;12.80;99.90
20858;DHT22;10589;53.636;10.012;2023-08-31T06:40:23;12.90;99.90
20858;DHT22;10589;53.636;10.012;2023-08-31T06:42:49;12.90;99.90
20858;DHT22;10589;53.636;10.012;2023-08-31T06:45:14;12.90;99.90
20858;DHT22;10589;53.636;10.012;2023-08-31T06:47:40;13.00;99.90
20858;DHT22;10589;53.636;10.012;2023-08-31T06:50:06;13.10;99.90
20858;DHT22;10589;53.636;10.012;2023-08-31T06:52:31;13.10;99.90
20858;DHT22;10589;53.636;10.012;2023-08-31T06:54:57;13.20;99.90
20858;DHT22;10589;53.636;10.012;2023-08-31T06:57:24;13.30;99.90
20858;DHT22;10589;53.636;10.012;2023-08-31T06:59:49;13.30;99.90
20858;DHT22;10589;53.636;10.012;2023-08-31T07:02:15;13.30;99.90
20858;DHT22;10589;53.636;10.012;2023-08-31T07:04:41;13.30;99.90
20858;DHT22;10589;53.636;10.012;2023-08-31T07:07:08;13.40;99.90
20858;DHT22;10589;53.636;10.012;2023-08-31T07:09:34;13.50;99.90
20858;DHT22;10589;53.636;10.012;2023-08-31T07:12:00;13.60;99.90
20858;DHT22;10589;53.636;10.012;2023-08-31T07:14:27;13.70;99.90
20858;DHT22;10589;53.636;10.012;2023-08-31T07:16:53;13.70;99.90
20858;DHT22;10589;53.636;10.012;2023-08-31T07:19:18;13.70;99.90
20858;DHT22;10589;53.636;10.012;2023-08-31T07:21:44;13.80;99.90
20858;DHT22;10589;53.636;10.012;2023-08-31T07:24:10;13.90;99.90
20858;DHT22;10589;53.636;10.012;2023-08-31T07:26:36;14.00;99.90
20858;DHT22;10589;53.636;10.012;2023-08-31T07:29:02;14.10;99.90
20858;DHT22;10589;53.636;10.012;2023-08-31T07:31:33;14.10;99.90
20858;DHT22;10589;53.636;10.012;2023-08-31T07:33:58;14.20;99.90
20858;DHT22;10589;53.636;10.012;2023-08-31T07:36:25;14.40;99.90
20858;DHT22;10589;53.636;10.012;2023-08-31T07:38:50;14.40;99.90
20858;DHT22;10589;53.636;10.012;2023-08-31T07:41:16;14.40;99.90
20858;DHT22;10589;53.636;10.012;2023-08-31T07:43:41;14.50;99.90
20858;DHT22;10589;53.636;10.012;2023-08-31T07:46:07;14.60;99.90
20858;DHT22;10589;53.636;10.012;2023-08-31T07:48:32;14.70;99.90
20858;DHT22;10589;53.636;10.012;2023-08-31T07:50:58;14.80;99.90
20858;DHT22;10589;53.636;10.012;2023-08-31T07:53:23;14.90;99.90
20858;DHT22;10589;53.636;10.012;2023-08-31T07:55:53;15.10;99.90
20858;DHT22;10589;53.636;10.012;2023-08-31T07:58:23;15.10;99.90
20858;DHT22;10589;53.636;10.012;2023-08-31T08:00:52;15.20;99.90
20858;DHT22;10589;53.636;10.012;2023-08-31T08:03:17;15.30;99.90
20858;DHT22;10589;53.636;10.012;2023-08-31T08:05:43;15.30;99.90
20858;DHT22;10589;53.636;10.012;2023-08-31T08:08:09;15.40;99.90
20858;DHT22;10589;53.636;10.012;2023-08-31T08:10:34;15.50;99.90
20858;DHT22;10589;53.636;10.012;2023-08-31T08:13:00;15.60;99.90
20858;DHT22;10589;53.636;10.012;2023-08-31T08:15:26;15.70;99.90
20858;DHT22;10589;53.636;10.012;2023-08-31T08:17:51;15.70;99.90
20858;DHT22;10589;53.636;10.012;2023-08-31T08:20:19;15.80;99.90
20858;DHT22;10589;53.636;10.012;2023-08-31T08:22:44;15.80;99.90
20858;DHT22;10589;53.636;10.012;2023-08-31T08:25:10;15.90;99.90
20858;DHT22;10589;53.636;10.012;2023-08-31T08:27:36;15.90;99.90
20858;DHT22;10589;53.636;10.012;2023-08-31T08:30:02;16.00;99.90
20858;DHT22;10589;53.636;10.012;2023-08-31T08:32:28;15.80;99.90
20858;DHT22;10589;53.636;10.012;2023-08-31T08:34:54;15.70;99.90
20858;DHT22;10589;53.636;10.012;2023-08-31T08:37:20;15.60;99.90
20858;DHT22;10589;53.636;10.012;2023-08-31T08:39:49;15.70;99.90
20858;DHT22;10589;53.636;10.012;2023-08-31T08:42:17;15.80;99.90
20858;DHT22;10589;53.636;10.012;2023-08-31T08:44:43;15.90;99.90
20858;DHT22;10589;53.636;10.012;2023-08-31T08:47:11;15.80;99.90
20858;DHT22;10589;53.636;10.012;2023-08-31T08:49:38;15.90;99.90
20858;DHT22;10589;53.636;10.012;2023-08-31T08:52:04;15.80;99.90
20858;DHT22;10589;53.636;10.012;2023-08-31T08:54:30;15.70;99.90
20858;DHT22;10589;53.636;10.012;2023-08-31T08:56:56;15.60;99.90
20858;DHT22;10589;53.636;10.012;2023-08-31T08:59:23;15.40;99.90
20858;DHT22;10589;53.636;10.012;2023-08-31T09:01:49;15.30;99.90
20858;DHT22;10589;53.636;10.012;2023-08-31T09:04:14;15.20;99.90
20858;DHT22;10589;53.636;10.012;2023-08-31T09:06:40;15.10;99.90
20858;DHT22;10589;53.636;10.012;2023-08-31T09:09:09;15.20;99.90
20858;DHT22;10589;53.636;10.012;2023-08-31T09:11:35;15.30;99.90
20858;DHT22;10589;53.636;10.012;2023-08-31T09:14:19;15.40;99.90
20858;DHT22;10589;53.636;10.012;2023-08-31T09:16:46;15.50;99.90
20858;DHT22;10589;53.636;10.012;2023-08-31T09:19:20;15.60;99.90
20858;DHT22;10589;53.636;10.012;2023-08-31T09:21:51;15.70;99.90
20858;DHT22;10589;53.636;10.012;2023-08-31T09:24:17;15.80;99.90
20858;DHT22;10589;53.636;10.012;2023-08-31T09:26:48;16.00;99.90
20858;DHT22;10589;53.636;10.012;2023-08-31T09:29:14;16.30;99.90
20858;DHT22;10589;53.636;10.012;2023-08-31T09:31:44;16.60;99.90
20858;DHT22;10589;53.636;10.012;2023-08-31T09:34:10;17.00;99.90
20858;DHT22;10589;53.636;10.012;2023-08-31T09:36:37;17.10;99.90
20858;DHT22;10589;53.636;10.012;2023-08-31T09:39:03;17.20;99.90
20858;DHT22;10589;53.636;10.012;2023-08-31T09:41:30;17.30;99.90
20858;DHT22;10589;53.636;10.012;2023-08-31T09:43:55;17.30;99.90
20858;DHT22;10589;53.636;10.012;2023-08-31T09:46:21;17.40;99.90
20858;DHT22;10589;53.636;10.012;2023-08-31T09:48:48;17.60;99.90
20858;DHT22;10589;53.636;10.012;2023-08-31T09:51:14;17.70;99.90
20858;DHT22;10589;53.636;10.012;2023-08-31T09:53:47;18.00;99.90
20858;DHT22;10589;53.636;10.012;2023-08-31T09:56:18;18.30;99.90
20858;DHT22;10589;53.636;10.012;2023-08-31T09:58:46;18.20;99.90
20858;DHT22;10589;53.636;10.012;2023-08-31T10:01:12;18.10;99.90
20858;DHT22;10589;53.636;10.012;2023-08-31T10:03:39;18.20;99.90
20858;DHT22;10589;53.636;10.012;2023-08-31T10:06:05;18.30;99.90
20858;DHT22;10589;53.636;10.012;2023-08-31T10:08:33;18.50;99.90
20858;DHT22;10589;53.636;10.012;2023-08-31T10:11:00;18.80;99.90
20858;DHT22;10589;53.636;10.012;2023-08-31T10:13:31;19.00;99.90
20858;DHT22;10589;53.636;10.012;2023-08-31T10:16:00;18.80;99.90
20858;DHT22;10589;53.636;10.012;2023-08-31T10:18:29;18.80;99.90
20858;DHT22;10589;53.636;10.012;2023-08-31T10:20:56;18.60;99.90
20858;DHT22;10589;53.636;10.012;2023-08-31T10:23:22;18.60;99.90
20858;DHT22;10589;53.636;10.012;2023-08-31T10:28:20;18.70;99.90
20858;DHT22;10589;53.636;10.012;2023-08-31T10:33:37;19.00;99.90
20858;DHT22;10589;53.636;10.012;2023-08-31T10:36:09;19.00;99.90
20858;DHT22;10589;53.636;10.012;2023-08-31T10:38:35;19.00;99.90
20858;DHT22;10589;53.636;10.012;2023-08-31T10:41:01;18.80;99.90
20858;DHT22;10589;53.636;10.012;2023-08-31T10:43:51;18.70;99.90
20858;DHT22;10589;53.636;10.012;2023-08-31T10:46:36;18.40;99.90
20858;DHT22;10589;53.636;10.012;2023-08-31T10:51:44;18.30;99.90
20858;DHT22;10589;53.636;10.012;2023-08-31T10:56:53;19.00;99.90
20858;DHT22;10589;53.636;10.012;2023-08-31T10:59:20;19.50;99.90
20858;DHT22;10589;53.636;10.012;2023-08-31T11:04:22;19.60;99.90
20858;DHT22;10589;53.636;10.012;2023-08-31T11:06:48;19.50;99.90
20858;DHT22;10589;53.636;10.012;2023-08-31T11:09:21;19.00;99.90
20858;DHT22;10589;53.636;10.012;2023-08-31T11:11:47;18.70;99.90
20858;DHT22;10589;53.636;10.012;2023-08-31T11:14:14;18.50;99.90
20858;DHT22;10589;53.636;10.012;2023-08-31T11:16:41;18.50;99.90
20858;DHT22;10589;53.636;10.012;2023-08-31T11:19:07;18.70;99.90
20858;DHT22;10589;53.636;10.012;2023-08-31T11:21:32;19.00;99.90
20858;DHT22;10589;53.636;10.012;2023-08-31T11:23:58;19.10;99.90
20858;DHT22;10589;53.636;10.012;2023-08-31T11:26:25;19.40;99.90
20858;DHT22;10589;53.636;10.012;2023-08-31T11:28:51;19.70;99.90
20858;DHT22;10589;53.636;10.012;2023-08-31T11:31:24;20.00;99.90
20858;DHT22;10589;53.636;10.012;2023-08-31T11:33:49;20.00;99.90
20858;DHT22;10589;53.636;10.012;2023-08-31T11:36:15;20.20;99.90
20858;DHT22;10589;53.636;10.012;2023-08-31T11:38:44;20.40;99.90
20858;DHT22;10589;53.636;10.012;2023-08-31T11:41:09;20.70;99.90
20858;DHT22;10589;53.636;10.012;2023-08-31T11:43:36;20.90;99.90
20858;DHT22;10589;53.636;10.012;2023-08-31T11:46:03;21.00;99.90
20858;DHT22;10589;53.636;10.012;2023-08-31T11:48:30;21.10;99.90
20858;DHT22;10589;53.636;10.012;2023-08-31T11:50:56;21.30;99.90
20858;DHT22;10589;53.636;10.012;2023-08-31T11:53:22;21.20;99.90
20858;DHT22;10589;53.636;10.012;2023-08-31T11:55:51;21.10;99.90
20858;DHT22;10589;53.636;10.012;2023-08-31T11:58:19;21.00;99.90
20858;DHT22;10589;53.636;10.012;2023-08-31T12:00:45;20.60;99.90
20858;DHT22;10589;53.636;10.012;2023-08-31T12:03:12;20.40;99.90
20858;DHT22;10589;53.636;10.012;2023-08-31T12:05:46;20.60;99.90
20858;DHT22;10589;53.636;10.012;2023-08-31T12:08:12;21.00;99.90
20858;DHT22;10589;53.636;10.012;2023-08-31T12:10:42;21.10;99.90
20858;DHT22;10589;53.636;10.012;2023-08-31T12:13:08;20.80;99.90
20858;DHT22;10589;53.636;10.012;2023-08-31T12:15:34;20.70;99.90
20858;DHT22;10589;53.636;10.012;2023-08-31T12:18:07;20.50;99.90
20858;DHT22;10589;53.636;10.012;2023-08-31T12:20:33;20.50;99.90
20858;DHT22;10589;53.636;10.012;2023-08-31T12:23:07;20.70;99.90
20858;DHT22;10589;53.636;10.012;2023-08-31T12:25:32;20.90;99.90
20858;DHT22;10589;53.636;10.012;2023-08-31T12:27:58;20.80;99.90
20858;DHT22;10589;53.636;10.012;2023-08-31T12:30:23;20.70;99.90
20858;DHT22;10589;53.636;10.012;2023-08-31T12:32:51;20.30;99.90
20858;DHT22;10589;53.636;10.012;2023-08-31T12:35:17;20.20;99.90
20858;DHT22;10589;53.636;10.012;2023-08-31T12:37:43;20.00;99.90
20858;DHT22;10589;53.636;10.012;2023-08-31T12:40:09;19.60;99.90
20858;DHT22;10589;53.636;10.012;2023-08-31T12:42:35;19.20;99.90
20858;DHT22;10589;53.636;10.012;2023-08-31T12:45:01;18.80;99.90
20858;DHT22;10589;53.636;10.012;2023-08-31T12:47:31;18.40;99.90
20858;DHT22;10589;53.636;10.012;2023-08-31T12:49:56;18.10;99.90
20858;DHT22;10589;53.636;10.012;2023-08-31T12:52:22;17.80;99.90
20858;DHT22;10589;53.636;10.012;2023-08-31T12:54:48;17.60;99.90
20858;DHT22;10589;53.636;10.012;2023-08-31T12:57:14;17.30;99.90
20858;DHT22;10589;53.636;10.012;2023-08-31T12:59:40;17.20;99.90
20858;DHT22;10589;53.636;10.012;2023-08-31T13:02:07;17.00;99.90
20858;DHT22;10589;53.636;10.012;2023-08-31T13:04:36;16.90;99.90
20858;DHT22;10589;53.636;10.012;2023-08-31T13:07:01;16.90;99.90
20858;DHT22;10589;53.636;10.012;2023-08-31T13:09:27;17.10;99.90
20858;DHT22;10589;53.636;10.012;2023-08-31T13:11:53;17.60;99.90
20858;DHT22;10589;53.636;10.012;2023-08-31T13:14:19;18.00;99.90
20858;DHT22;10589;53.636;10.012;2023-08-31T13:16:44;19.00;99.90
20858;DHT22;10589;53.636;10.012;2023-08-31T13:19:10;21.20;99.90
20858;DHT22;10589;53.636;10.012;2023-08-31T13:21:35;23.50;99.90
20858;DHT22;10589;53.636;10.012;2023-08-31T13:24:01;25.70;99.90
20858;DHT22;10589;53.636;10.012;2023-08-31T13:26:27;25.90;99.90
20858;DHT22;10589;53.636;10.012;2023-08-31T13:28:52;26.40;99.90
20858;DHT22;10589;53.636;10.012;2023-08-31T13:31:18;26.20;99.90
20858;DHT22;10589;53.636;10.012;2023-08-31T13:33:44;26.40;99.90
20858;DHT22;10589;53.636;10.012;2023-08-31T13:36:09;27.30;99.90
20858;DHT22;10589;53.636;10.012;2023-08-31T13:38:35;28.70;99.90
20858;DHT22;10589;53.636;10.012;2023-08-31T13:41:00;30.20;99.90
20858;DHT22;10589;53.636;10.012;2023-08-31T13:43:26;31.00;99.90
20858;DHT22;10589;53.636;10.012;2023-08-31T13:45:52;31.40;97.60
20858;DHT22;10589;53.636;10.012;2023-08-31T13:48:18;31.90;95.10
20858;DHT22;10589;53.636;10.012;2023-08-31T13:50:46;29.90;95.00
20858;DHT22;10589;53.636;10.012;2023-08-31T13:53:11;28.80;96.40
20858;DHT22;10589;53.636;10.012;2023-08-31T13:55:37;28.90;97.10
20858;DHT22;10589;53.636;10.012;2023-08-31T13:58:08;28.80;98.40
20858;DHT22;10589;53.636;10.012;2023-08-31T14:00:34;28.60;98.10
20858;DHT22;10589;53.636;10.012;2023-08-31T14:03:00;28.00;97.30
20858;DHT22;10589;53.636;10.012;2023-08-31T14:05:29;26.90;99.70
20858;DHT22;10589;53.636;10.012;2023-08-31T14:07:55;25.90;99.90
20858;DHT22;10589;53.636;10.012;2023-08-31T14:10:21;25.00;99.90
20858;DHT22;10589;53.636;10.012;2023-08-31T14:12:47;24.60;99.90
20858;DHT22;10589;53.636;10.012;2023-08-31T14:15:13;25.70;99.90
20858;DHT22;10589;53.636;10.012;2023-08-31T14:17:38;27.40;99.90
20858;DHT22;10589;53.636;10.012;2023-08-31T14:20:04;27.30;99.90
20858;DHT22;10589;53.636;10.012;2023-08-31T14:22:33;27.30;99.90
20858;DHT22;10589;53.636;10.012;2023-08-31T14:24:59;26.80;99.90
20858;DHT22;10589;53.636;10.012;2023-08-31T14:27:26;25.50;99.90
20858;DHT22;10589;53.636;10.012;2023-08-31T14:29:52;24.30;99.90
20858;DHT22;10589;53.636;10.012;2023-08-31T14:32:18;23.30;99.90
20858;DHT22;10589;53.636;10.012;2023-08-31T14:34:44;22.80;99.90
20858;DHT22;10589;53.636;10.012;2023-08-31T14:37:09;22.40;99.90
20858;DHT22;10589;53.636;10.012;2023-08-31T14:39:35;22.40;99.90
20858;DHT22;10589;53.636;10.012;2023-08-31T14:42:00;22.10;99.90
20858;DHT22;10589;53.636;10.012;2023-08-31T14:44:26;21.50;99.90
20858;DHT22;10589;53.636;10.012;2023-08-31T14:46:52;21.00;99.90
20858;DHT22;10589;53.636;10.012;2023-08-31T14:49:18;20.60;99.90
20858;DHT22;10589;53.636;10.012;2023-08-31T14:51:43;20.20;99.90
20858;DHT22;10589;53.636;10.012;2023-08-31T14:54:09;19.90;99.90
20858;DHT22;10589;53.636;10.012;2023-08-31T14:56:35;19.60;99.90
20858;DHT22;10589;53.636;10.012;2023-08-31T14:59:00;19.50;99.90
20858;DHT22;10589;53.636;10.012;2023-08-31T15:01:26;19.60;99.90
20858;DHT22;10589;53.636;10.012;2023-08-31T15:03:51;19.90;99.90
20858;DHT22;10589;53.636;10.012;2023-08-31T15:06:17;19.90;99.90
20858;DHT22;10589;53.636;10.012;2023-08-31T15:08:43;20.20;99.90
20858;DHT22;10589;53.636;10.012;2023-08-31T15:11:09;21.60;99.90
20858;DHT22;10589;53.636;10.012;2023-08-31T15:13:34;22.50;99.90
20858;DHT22;10589;53.636;10.012;2023-08-31T15:16:00;22.70;99.90
20858;DHT22;10589;53.636;10.012;2023-08-31T15:18:27;22.50;99.90
20858;DHT22;10589;53.636;10.012;2023-08-31T15:20:53;22.00;99.90
20858;DHT22;10589;53.636;10.012;2023-08-31T15:23:18;21.50;99.90
20858;DHT22;10589;53.636;10.012;2023-08-31T15:25:44;21.00;99.90
20858;DHT22;10589;53.636;10.012;2023-08-31T15:28:10;20.70;99.90
20858;DHT22;10589;53.636;10.012;2023-08-31T15:30:35;20.50;99.90
20858;DHT22;10589;53.636;10.012;2023-08-31T15:33:02;20.10;99.90
20858;DHT22;10589;53.636;10.012;2023-08-31T15:35:31;19.70;99.90
20858;DHT22;10589;53.636;10.012;2023-08-31T15:37:58;19.40;99.90
20858;DHT22;10589;53.636;10.012;2023-08-31T15:40:24;19.10;99.90
20858;DHT22;10589;53.636;10.012;2023-08-31T15:42:50;18.60;99.90
20858;DHT22;10589;53.636;10.012;2023-08-31T15:45:16;18.20;99.90
20858;DHT22;10589;53.636;10.012;2023-08-31T15:47:41;17.90;99.90
20858;DHT22;10589;53.636;10.012;2023-08-31T15:50:07;17.70;99.90
20858;DHT22;10589;53.636;10.012;2023-08-31T15:52:33;17.60;99.90
20858;DHT22;10589;53.636;10.012;2023-08-31T15:55:02;17.40;99.90
20858;DHT22;10589;53.636;10.012;2023-08-31T15:57:29;17.10;99.90
20858;DHT22;10589;53.636;10.012;2023-08-31T15:59:58;16.70;99.90
20858;DHT22;10589;53.636;10.012;2023-08-31T16:02:24;16.30;99.90
20858;DHT22;10589;53.636;10.012;2023-08-31T16:04:52;16.00;99.90
20858;DHT22;10589;53.636;10.012;2023-08-31T16:07:17;15.90;99.90
20858;DHT22;10589;53.636;10.012;2023-08-31T16:09:43;15.80;99.90
20858;DHT22;10589;53.636;10.012;2023-08-31T16:12:08;16.00;99.90
20858;DHT22;10589;53.636;10.012;2023-08-31T16:14:34;16.10;99.90
20858;DHT22;10589;53.636;10.012;2023-08-31T16:17:01;16.30;99.90
20858;DHT22;10589;53.636;10.012;2023-08-31T16:19:27;16.90;99.90
20858;DHT22;10589;53.636;10.012;2023-08-31T16:21:53;18.40;99.90
20858;DHT22;10589;53.636;10.012;2023-08-31T16:24:18;19.60;99.90
20858;DHT22;10589;53.636;10.012;2023-08-31T16:26:44;19.80;99.90
20858;DHT22;10589;53.636;10.012;2023-08-31T16:29:09;19.70;99.90
20858;DHT22;10589;53.636;10.012;2023-08-31T16:31:35;19.40;99.90
20858;DHT22;10589;53.636;10.012;2023-08-31T16:34:01;19.10;99.90
20858;DHT22;10589;53.636;10.012;2023-08-31T16:36:26;18.80;99.90
20858;DHT22;10589;53.636;10.012;2023-08-31T16:38:52;18.40;99.90
20858;DHT22;10589;53.636;10.012;2023-08-31T16:41:17;18.20;99.90
20858;DHT22;10589;53.636;10.012;2023-08-31T16:43:43;18.10;99.90
20858;DHT22;10589;53.636;10.012;2023-08-31T16:46:09;18.00;99.90
20858;DHT22;10589;53.636;10.012;2023-08-31T16:48:34;17.90;99.90
20858;DHT22;10589;53.636;10.012;2023-08-31T16:51:00;18.30;99.90
20858;DHT22;10589;53.636;10.012;2023-08-31T16:53:25;19.20;99.90
20858;DHT22;10589;53.636;10.012;2023-08-31T16:55:51;19.60;99.90
20858;DHT22;10589;53.636;10.012;2023-08-31T16:58:17;20.60;99.90
20858;DHT22;10589;53.636;10.012;2023-08-31T17:00:42;21.00;99.90
20858;DHT22;10589;53.636;10.012;2023-08-31T17:03:08;21.00;99.90
20858;DHT22;10589;53.636;10.012;2023-08-31T17:05:33;20.70;99.90
20858;DHT22;10589;53.636;10.012;2023-08-31T17:07:59;20.20;99.90
20858;DHT22;10589;53.636;10.012;2023-08-31T17:10:25;19.70;99.90
20858;DHT22;10589;53.636;10.012;2023-08-31T17:12:50;19.20;99.90
20858;DHT22;10589;53.636;10.012;2023-08-31T17:15:17;18.70;99.90
20858;DHT22;10589;53.636;10.012;2023-08-31T17:17:44;18.40;99.90
20858;DHT22;10589;53.636;10.012;2023-08-31T17:20:11;18.10;99.90
20858;DHT22;10589;53.636;10.012;2023-08-31T17:22:45;17.90;99.90
20858;DHT22;10589;53.636;10.012;2023-08-31T17:25:12;17.70;99.90
20858;DHT22;10589;53.636;10.012;2023-08-31T17:27:38;17.50;99.90
20858;DHT22;10589;53.636;10.012;2023-08-31T17:30:05;17.20;99.90
20858;DHT22;10589;53.636;10.012;2023-08-31T17:32:33;17.10;99.90
20858;DHT22;10589;53.636;10.012;2023-08-31T17:35:00;17.00;99.90
20858;DHT22;10589;53.636;10.012;2023-08-31T17:37:28;16.90;99.90
20858;DHT22;10589;53.636;10.012;2023-08-31T17:39:54;16.80;99.90
20858;DHT22;10589;53.636;10.012;2023-08-31T17:42:19;16.70;99.90
20858;DHT22;10589;53.636;10.012;2023-08-31T17:44:45;16.60;99.90
20858;DHT22;10589;53.636;10.012;2023-08-31T17:47:13;16.60;99.90
20858;DHT22;10589;53.636;10.012;2023-08-31T17:49:41;16.50;99.90
20858;DHT22;10589;53.636;10.012;2023-08-31T17:52:06;16.40;99.90
20858;DHT22;10589;53.636;10.012;2023-08-31T17:54:32;16.30;99.90
20858;DHT22;10589;53.636;10.012;2023-08-31T17:56:58;16.30;99.90
20858;DHT22;10589;53.636;10.012;2023-08-31T17:59:24;16.20;99.90
20858;DHT22;10589;53.636;10.012;2023-08-31T18:01:50;16.10;99.90
20858;DHT22;10589;53.636;10.012;2023-08-31T18:04:15;16.00;99.90
20858;DHT22;10589;53.636;10.012;2023-08-31T18:06:43;15.90;99.90
20858;DHT22;10589;53.636;10.012;2023-08-31T18:09:09;15.80;99.90
20858;DHT22;10589;53.636;10.012;2023-08-31T18:11:35;15.70;99.90
20858;DHT22;10589;53.636;10.012;2023-08-31T18:14:01;15.60;99.90
20858;DHT22;10589;53.636;10.012;2023-08-31T18:16:29;15.60;99.90
20858;DHT22;10589;53.636;10.012;2023-08-31T18:18:54;15.50;99.90
20858;DHT22;10589;53.636;10.012;2023-08-31T18:21:20;15.50;99.90
20858;DHT22;10589;53.636;10.012;2023-08-31T18:23:46;15.40;99.90
20858;DHT22;10589;53.636;10.012;2023-08-31T18:26:11;15.30;99.90
20858;DHT22;10589;53.636;10.012;2023-08-31T18:28:37;15.20;99.90
20858;DHT22;10589;53.636;10.012;2023-08-31T18:31:03;15.10;99.90
20858;DHT22;10589;53.636;10.012;2023-08-31T18:33:29;15.10;99.90
20858;DHT22;10589;53.636;10.012;2023-08-31T18:35:58;14.90;99.90
20858;DHT22;10589;53.636;10.012;2023-08-31T18:38:27;14.80;99.90
20858;DHT22;10589;53.636;10.012;2023-08-31T18:40:54;14.80;99.90
20858;DHT22;10589;53.636;10.012;2023-08-31T18:43:21;14.70;99.90
20858;DHT22;10589;53.636;10.012;2023-08-31T18:45:47;14.70;99.90
20858;DHT22;10589;53.636;10.012;2023-08-31T18:48:14;14.70;99.90
20858;DHT22;10589;53.636;10.012;2023-08-31T18:50:40;14.70;99.90
20858;DHT22;10589;53.636;10.012;2023-08-31T18:53:06;14.60;99.90
20858;DHT22;10589;53.636;10.012;2023-08-31T18:55:33;14.50;99.90
20858;DHT22;10589;53.636;10.012;2023-08-31T18:57:59;14.60;99.90
20858;DHT22;10589;53.636;10.012;2023-08-31T19:00:24;14.50;99.90
20858;DHT22;10589;53.636;10.012;2023-08-31T19:02:50;14.50;99.90
20858;DHT22;10589;53.636;10.012;2023-08-31T19:05:15;14.60;99.90
20858;DHT22;10589;53.636;10.012;2023-08-31T19:07:42;14.60;99.90
20858;DHT22;10589;53.636;10.012;2023-08-31T19:10:07;14.60;99.90